Time;durP1;ratioP1;P1;durP2;ratioP2;P2;SDS_P1;SDS_P2;PMS_P1;PMS_P2;Temp;Humidity;BMP_temperature;BMP_pressure;BME280_temperature;BME280_humidity;BME280_pressure;Samples;Min_cycle;Max_cycle;Signal;HPM_P1;HPM_P2
2022/07/13 00:00:53;;;;;;;;;1.00;1.00;;;;;;;;5092167;27;45404;-72
2022/07/13 00:03:18;;;;;;;;;2.00;2.00;;;;;;;;5093947;27;45670;-73
2022/07/13 00:05:44;;;;;;;;;2.00;2.00;;;;;;;;5094281;27;45311;-72
2022/07/13 00:08:09;;;;;;;;;3.00;3.00;;;;;;;;5092004;27;45421;-73
2022/07/13 00:10:34;;;;;;;;;1.67;1.67;;;;;;;;5091430;27;46250;-72
2022/07/13 00:12:59;;;;;;;;;2.00;1.00;;;;;;;;5092085;27;45450;-72
2022/07/13 00:15:24;;;;;;;;;1.00;1.00;;;;;;;;5092995;27;45567;-72
2022/07/13 00:17:50;;;;;;;;;0.33;0.00;;;;;;;;5094892;27;45293;-73
2022/07/13 00:20:15;;;;;;;;;1.00;1.00;;;;;;;;5095665;27;45334;-72
2022/07/13 00:22:40;;;;;;;;;1.33;0.33;;;;;;;;5099591;27;45285;-72
2022/07/13 00:25:06;;;;;;;;;2.00;2.00;;;;;;;;5091430;27;45356;-72
2022/07/13 00:27:31;;;;;;;;;2.00;2.00;;;;;;;;5093844;27;45294;-73
2022/07/13 00:29:57;;;;;;;;;1.33;1.33;;;;;;;;5091091;27;46771;-73
2022/07/13 00:32:22;;;;;;;;;1.00;1.00;;;;;;;;5093424;27;45453;-73
2022/07/13 00:34:47;;;;;;;;;1.33;1.33;;;;;;;;5091493;27;45436;-73
2022/07/13 00:37:12;;;;;;;;;1.00;1.00;;;;;;;;5091724;27;45471;-72
2022/07/13 00:39:37;;;;;;;;;0.33;0.33;;;;;;;;5091446;27;46423;-72
2022/07/13 00:42:03;;;;;;;;;0.00;0.00;;;;;;;;5094867;27;45291;-73
2022/07/13 00:44:28;;;;;;;;;1.67;1.67;;;;;;;;5092506;27;45437;-72
2022/07/13 00:46:54;;;;;;;;;2.75;1.50;;;;;;;;5091591;27;45405;-73
2022/07/13 00:49:20;;;;;;;;;1.00;1.00;;;;;;;;5091401;27;46093;-72
2022/07/13 00:51:45;;;;;;;;;0.67;0.67;;;;;;;;5091361;27;45521;-72
2022/07/13 00:54:10;;;;;;;;;3.00;1.00;;;;;;;;5093581;27;45394;-72
2022/07/13 00:56:36;;;;;;;;;1.33;1.33;;;;;;;;5093069;27;45279;-72
2022/07/13 00:59:04;;;;;;;;;1.33;1.33;;;;;;;;5090951;27;46023;-73
2022/07/13 01:01:29;;;;;;;;;1.33;1.33;;;;;;;;5091393;27;45433;-73
2022/07/13 01:03:54;;;;;;;;;1.00;1.00;;;;;;;;5091241;27;45326;-71
2022/07/13 01:06:20;;;;;;;;;4.67;3.00;;;;;;;;5092937;27;45408;-73
2022/07/13 01:08:46;;;;;;;;;3.33;3.33;;;;;;;;5093032;27;46528;-73
2022/07/13 01:11:11;;;;;;;;;3.00;3.00;;;;;;;;5094019;27;45336;-72
2022/07/13 01:13:36;;;;;;;;;3.00;3.00;;;;;;;;5095087;27;45804;-73
2022/07/13 01:16:02;;;;;;;;;2.33;2.33;;;;;;;;5094767;27;45471;-73
2022/07/13 01:18:28;;;;;;;;;2.00;2.00;;;;;;;;5095335;27;46571;-73
2022/07/13 01:20:53;;;;;;;;;2.33;2.33;;;;;;;;5098093;27;45435;-73
2022/07/13 01:23:18;;;;;;;;;3.00;3.00;;;;;;;;5095991;27;45638;-72
2022/07/13 01:25:44;;;;;;;;;2.00;2.00;;;;;;;;5094426;27;45393;-72
2022/07/13 01:28:09;;;;;;;;;2.33;2.33;;;;;;;;5096278;27;46422;-72
2022/07/13 01:30:34;;;;;;;;;2.00;2.00;;;;;;;;5095222;27;45374;-72
2022/07/13 01:33:00;;;;;;;;;4.67;4.67;;;;;;;;5098668;27;45373;-72
2022/07/13 01:35:25;;;;;;;;;3.00;3.00;;;;;;;;5094226;27;45452;-72
2022/07/13 01:37:51;;;;;;;;;2.00;2.00;;;;;;;;5095104;27;46246;-73
2022/07/13 01:40:16;;;;;;;;;4.67;2.00;;;;;;;;5094489;27;45461;-72
2022/07/13 01:42:42;;;;;;;;;2.00;2.00;;;;;;;;5096305;27;45413;-72
2022/07/13 01:45:07;;;;;;;;;3.00;1.67;;;;;;;;5096851;27;45382;-73
2022/07/13 01:47:36;;;;;;;;;1.33;1.33;;;;;;;;5096783;27;47911;-72
2022/07/13 01:50:01;;;;;;;;;2.33;2.33;;;;;;;;5094098;27;45392;-72
2022/07/13 01:52:26;;;;;;;;;2.33;2.33;;;;;;;;5093970;27;45313;-72
2022/07/13 01:54:51;;;;;;;;;1.67;1.67;;;;;;;;5094150;27;45678;-72
2022/07/13 01:57:17;;;;;;;;;2.00;2.00;;;;;;;;5095783;27;46511;-72
2022/07/13 01:59:42;;;;;;;;;3.67;3.67;;;;;;;;5096022;27;45467;-72
2022/07/13 02:02:07;;;;;;;;;2.00;2.00;;;;;;;;5095236;27;45473;-72
2022/07/13 02:04:32;;;;;;;;;2.00;2.00;;;;;;;;5094094;27;45444;-72
2022/07/13 02:06:58;;;;;;;;;1.00;1.00;;;;;;;;5093584;27;46641;-72
2022/07/13 02:09:23;;;;;;;;;3.33;2.00;;;;;;;;5095004;27;45323;-72
2022/07/13 02:11:48;;;;;;;;;2.67;2.00;;;;;;;;5096760;27;45359;-72
2022/07/13 02:14:13;;;;;;;;;2.00;2.00;;;;;;;;5093758;27;45362;-72
2022/07/13 02:16:38;;;;;;;;;2.00;2.00;;;;;;;;5093546;27;45479;-72
2022/07/13 02:19:04;;;;;;;;;2.33;2.33;;;;;;;;5093653;27;45434;-72
2022/07/13 02:21:29;;;;;;;;;2.00;2.00;;;;;;;;5092626;27;45326;-72
2022/07/13 02:23:54;;;;;;;;;2.33;2.00;;;;;;;;5097145;27;45553;-73
2022/07/13 02:26:19;;;;;;;;;1.00;1.00;;;;;;;;5092868;27;45477;-72
2022/07/13 02:28:45;;;;;;;;;1.33;1.33;;;;;;;;5095174;27;45270;-72
2022/07/13 02:31:10;;;;;;;;;1.33;1.33;;;;;;;;5095511;27;45616;-72
2022/07/13 02:33:36;;;;;;;;;1.33;1.33;;;;;;;;5093650;27;45400;-72
2022/07/13 02:36:01;;;;;;;;;1.00;1.00;;;;;;;;5096815;27;46157;-72
2022/07/13 02:38:26;;;;;;;;;3.00;3.00;;;;;;;;5093606;27;45405;-72
2022/07/13 02:40:52;;;;;;;;;2.00;2.00;;;;;;;;5093374;27;45319;-73
2022/07/13 02:43:17;;;;;;;;;2.00;2.00;;;;;;;;5093379;27;45472;-73
2022/07/13 02:45:42;;;;;;;;;1.00;1.00;;;;;;;;5093221;27;46272;-72
2022/07/13 02:48:07;;;;;;;;;2.33;2.33;;;;;;;;5096358;27;45446;-72
2022/07/13 02:50:32;;;;;;;;;1.67;1.33;;;;;;;;5095491;27;45460;-72
2022/07/13 02:52:58;;;;;;;;;1.00;1.00;;;;;;;;5093221;27;45208;-72
2022/07/13 02:55:23;;;;;;;;;1.00;1.00;;;;;;;;5092986;27;45452;-72
2022/07/13 02:57:48;;;;;;;;;4.33;3.33;;;;;;;;5092959;27;45287;-72
2022/07/13 03:00:14;;;;;;;;;2.00;2.00;;;;;;;;5096314;27;45248;-72
2022/07/13 03:02:39;;;;;;;;;1.33;1.33;;;;;;;;5093392;27;45562;-72
2022/07/13 03:05:05;;;;;;;;;1.33;1.33;;;;;;;;5092320;27;45481;-72
2022/07/13 03:07:30;;;;;;;;;1.00;1.00;;;;;;;;5095349;27;45451;-72
2022/07/13 03:09:55;;;;;;;;;1.00;1.00;;;;;;;;5093381;27;45488;-73
2022/07/13 03:12:21;;;;;;;;;1.00;0.33;;;;;;;;5094620;27;45304;-72
2022/07/13 03:14:46;;;;;;;;;2.33;2.00;;;;;;;;5095258;27;45491;-72
2022/07/13 03:17:11;;;;;;;;;2.67;2.67;;;;;;;;5092804;27;46025;-72
2022/07/13 03:19:36;;;;;;;;;1.33;1.00;;;;;;;;5092571;27;45408;-72
2022/07/13 03:22:02;;;;;;;;;2.00;2.00;;;;;;;;5092386;27;45532;-72
2022/07/13 03:24:28;;;;;;;;;1.00;1.00;;;;;;;;5093321;27;45397;-72
2022/07/13 03:26:53;;;;;;;;;5.00;2.67;;;;;;;;5095642;27;45481;-72
2022/07/13 03:29:18;;;;;;;;;1.00;1.00;;;;;;;;5089946;27;45703;-72
2022/07/13 03:31:43;;;;;;;;;2.33;1.33;;;;;;;;5094585;27;45367;-73
2022/07/13 03:34:08;;;;;;;;;2.33;2.33;;;;;;;;5091673;27;46308;-72
2022/07/13 03:36:34;;;;;;;;;2.00;2.00;;;;;;;;5092697;27;45591;-72
2022/07/13 03:39:00;;;;;;;;;1.33;1.33;;;;;;;;5096733;27;45441;-72
2022/07/13 03:41:25;;;;;;;;;2.33;1.00;;;;;;;;5091989;27;45540;-72
2022/07/13 03:43:50;;;;;;;;;2.00;2.00;;;;;;;;5092103;27;45413;-72
2022/07/13 03:46:15;;;;;;;;;2.00;2.00;;;;;;;;5092744;27;45565;-72
2022/07/13 03:48:41;;;;;;;;;1.00;1.00;;;;;;;;5092164;27;45468;-72
2022/07/13 03:51:06;;;;;;;;;2.00;2.00;;;;;;;;5095172;27;45298;-72
2022/07/13 03:53:31;;;;;;;;;1.67;1.67;;;;;;;;5095725;27;46387;-72
2022/07/13 03:55:56;;;;;;;;;2.67;1.67;;;;;;;;5091891;27;45542;-72
2022/07/13 03:58:21;;;;;;;;;2.33;2.33;;;;;;;;5091966;27;45322;-73
2022/07/13 04:00:47;;;;;;;;;1.33;1.33;;;;;;;;5092297;27;45412;-72
2022/07/13 04:03:12;;;;;;;;;2.00;2.00;;;;;;;;5093953;27;45454;-72
2022/07/13 04:05:38;;;;;;;;;2.67;2.00;;;;;;;;5093661;27;45308;-72
2022/07/13 04:08:03;;;;;;;;;3.00;3.00;;;;;;;;5091883;27;45406;-72
2022/07/13 04:10:28;;;;;;;;;2.00;2.00;;;;;;;;5092054;27;45393;-72
2022/07/13 04:12:53;;;;;;;;;2.33;2.33;;;;;;;;5091953;27;46445;-72
2022/07/13 04:15:19;;;;;;;;;1.00;1.00;;;;;;;;5093677;27;45502;-72
2022/07/13 04:17:44;;;;;;;;;2.00;2.00;;;;;;;;5093735;27;45561;-72
2022/07/13 04:20:10;;;;;;;;;2.00;2.00;;;;;;;;5093373;27;45788;-72
2022/07/13 04:22:35;;;;;;;;;2.00;2.00;;;;;;;;5091582;27;45672;-72
2022/07/13 04:25:01;;;;;;;;;1.33;1.33;;;;;;;;5091792;27;45395;-72
2022/07/13 04:27:26;;;;;;;;;1.00;1.00;;;;;;;;5093649;27;45298;-72
2022/07/13 04:29:52;;;;;;;;;3.00;1.67;;;;;;;;5094415;27;45497;-73
2022/07/13 04:32:17;;;;;;;;;2.00;2.00;;;;;;;;5093208;27;45279;-72
2022/07/13 04:34:42;;;;;;;;;1.00;1.00;;;;;;;;5093094;27;45711;-72
2022/07/13 04:37:07;;;;;;;;;2.00;2.00;;;;;;;;5091516;27;45992;-72
2022/07/13 04:39:33;;;;;;;;;2.00;2.00;;;;;;;;5091873;27;45385;-72
2022/07/13 04:41:59;;;;;;;;;1.00;1.00;;;;;;;;5095398;27;45597;-73
2022/07/13 04:44:26;;;;;;;;;1.00;1.00;;;;;;;;5091740;27;45285;-72
2022/07/13 04:46:51;;;;;;;;;3.00;3.00;;;;;;;;5096191;27;45325;-72
2022/07/13 04:49:19;;;;;;;;;2.33;2.00;;;;;;;;5095194;27;45440;-72
2022/07/13 04:51:44;;;;;;;;;1.67;1.67;;;;;;;;5094943;27;47150;-73
2022/07/13 04:54:09;;;;;;;;;2.00;2.00;;;;;;;;5097238;27;45493;-72
2022/07/13 04:56:34;;;;;;;;;3.00;1.00;;;;;;;;5096667;27;45568;-72
2022/07/13 04:59:00;;;;;;;;;1.00;1.00;;;;;;;;5094864;27;45509;-72
2022/07/13 05:01:25;;;;;;;;;1.33;1.33;;;;;;;;5094405;27;46226;-72
2022/07/13 05:03:50;;;;;;;;;2.00;2.00;;;;;;;;5094853;27;45357;-73
2022/07/13 05:06:15;;;;;;;;;2.00;2.00;;;;;;;;5097824;27;45335;-72
2022/07/13 05:08:41;;;;;;;;;1.67;1.67;;;;;;;;5096489;27;45295;-72
2022/07/13 05:11:08;;;;;;;;;2.00;2.00;;;;;;;;5094660;27;45653;-72
2022/07/13 05:13:33;;;;;;;;;1.67;1.67;;;;;;;;5094857;27;45638;-72
2022/07/13 05:15:58;;;;;;;;;2.00;2.00;;;;;;;;5094877;27;45575;-72
2022/07/13 05:18:24;;;;;;;;;2.00;2.00;;;;;;;;5094715;27;46305;-72
2022/07/13 05:20:49;;;;;;;;;2.00;1.00;;;;;;;;5097253;27;45637;-72
2022/07/13 05:23:14;;;;;;;;;2.00;2.00;;;;;;;;5094337;27;45544;-72
2022/07/13 05:25:39;;;;;;;;;1.00;1.00;;;;;;;;5094815;27;45571;-73
2022/07/13 05:28:05;;;;;;;;;2.00;2.00;;;;;;;;5096511;27;45518;-72
2022/07/13 05:30:30;;;;;;;;;1.33;1.33;;;;;;;;5088020;27;45409;-73
2022/07/13 05:32:55;;;;;;;;;3.33;2.00;;;;;;;;5098469;27;46144;-73
2022/07/13 05:35:21;;;;;;;;;1.33;1.33;;;;;;;;5094220;27;45630;-72
2022/07/13 05:37:47;;;;;;;;;1.00;1.00;;;;;;;;5094198;27;45306;-72
2022/07/13 05:40:12;;;;;;;;;4.00;2.00;;;;;;;;5094361;27;46429;-72
2022/07/13 05:42:38;;;;;;;;;3.00;3.00;;;;;;;;5095036;27;45429;-73
2022/07/13 05:45:03;;;;;;;;;2.33;2.33;;;;;;;;5097673;27;45390;-72
2022/07/13 05:47:28;;;;;;;;;1.67;1.67;;;;;;;;5094710;27;45486;-72
2022/07/13 05:49:53;;;;;;;;;0.33;0.33;;;;;;;;5093821;27;46315;-73
2022/07/13 05:52:19;;;;;;;;;2.00;2.00;;;;;;;;5094245;27;45451;-72
2022/07/13 05:54:44;;;;;;;;;1.00;1.00;;;;;;;;5093718;27;45648;-72
2022/07/13 05:57:09;;;;;;;;;2.00;2.00;;;;;;;;5096323;27;45747;-72
2022/07/13 05:59:34;;;;;;;;;2.00;1.67;;;;;;;;5094960;27;45723;-72
2022/07/13 06:02:00;;;;;;;;;2.67;2.67;;;;;;;;5093559;27;45525;-73
2022/07/13 06:04:25;;;;;;;;;3.00;2.67;;;;;;;;5094116;27;45363;-72
2022/07/13 06:06:50;;;;;;;;;2.00;2.00;;;;;;;;5093985;27;45571;-72
2022/07/13 06:09:15;;;;;;;;;2.33;1.33;;;;;;;;5095861;27;46387;-73
2022/07/13 06:11:41;;;;;;;;;2.33;1.00;;;;;;;;5095201;27;45370;-72
2022/07/13 06:14:06;;;;;;;;;2.67;2.00;;;;;;;;5093264;27;45237;-72
2022/07/13 06:16:32;;;;;;;;;1.33;1.33;;;;;;;;5094073;27;45359;-72
2022/07/13 06:18:57;;;;;;;;;2.00;2.00;;;;;;;;5094001;27;46122;-72
2022/07/13 06:21:22;;;;;;;;;2.33;2.00;;;;;;;;5095207;27;46176;-72
2022/07/13 06:23:47;;;;;;;;;1.33;1.33;;;;;;;;5096411;27;45300;-72
2022/07/13 06:26:13;;;;;;;;;2.00;2.00;;;;;;;;5095389;27;45321;-69
2022/07/13 06:28:38;;;;;;;;;4.00;2.00;;;;;;;;5094604;27;48004;-70
2022/07/13 06:31:03;;;;;;;;;2.00;2.00;;;;;;;;5092662;27;45553;-70
2022/07/13 06:33:28;;;;;;;;;2.00;2.00;;;;;;;;5094299;27;45356;-70
2022/07/13 06:35:56;;;;;;;;;2.00;2.00;;;;;;;;5096871;27;45279;-71
2022/07/13 06:38:22;;;;;;;;;2.33;2.33;;;;;;;;5093323;27;45813;-70
2022/07/13 06:40:47;;;;;;;;;2.00;1.67;;;;;;;;5094630;27;45503;-70
2022/07/13 06:43:13;;;;;;;;;1.33;1.33;;;;;;;;5093619;27;45335;-70
2022/07/13 06:45:38;;;;;;;;;2.33;2.33;;;;;;;;5093512;27;45136;-71
2022/07/13 06:48:03;;;;;;;;;1.33;1.33;;;;;;;;5097220;27;45303;-72
2022/07/13 06:50:28;;;;;;;;;2.00;2.00;;;;;;;;5094613;27;45423;-72
2022/07/13 06:52:53;;;;;;;;;1.00;1.00;;;;;;;;5093267;27;45254;-71
2022/07/13 06:55:19;;;;;;;;;3.33;3.33;;;;;;;;5091355;27;45346;-70
2022/07/13 06:57:44;;;;;;;;;2.67;2.67;;;;;;;;5092266;27;46350;-71
2022/07/13 07:00:10;;;;;;;;;2.00;2.00;;;;;;;;5095524;27;45354;-70
2022/07/13 07:02:36;;;;;;;;;2.00;2.00;;;;;;;;5095792;27;45424;-70
2022/07/13 07:05:01;;;;;;;;;2.00;2.00;;;;;;;;5094308;27;45456;-70
2022/07/13 07:07:26;;;;;;;;;1.67;1.67;;;;;;;;5092067;27;46094;-70
2022/07/13 07:09:52;;;;;;;;;1.33;1.33;;;;;;;;5092442;27;45377;-70
2022/07/13 07:12:17;;;;;;;;;3.00;3.00;;;;;;;;5095434;27;45326;-70
2022/07/13 07:14:43;;;;;;;;;2.00;2.00;;;;;;;;5094579;27;45309;-70
2022/07/13 07:17:08;;;;;;;;;2.00;2.00;;;;;;;;5092432;27;46050;-70
2022/07/13 07:19:33;;;;;;;;;3.00;2.00;;;;;;;;5092701;27;45561;-71
2022/07/13 07:21:59;;;;;;;;;1.67;1.67;;;;;;;;5092714;27;45594;-70
2022/07/13 07:24:24;;;;;;;;;2.00;2.00;;;;;;;;5093729;27;45413;-70
2022/07/13 07:26:49;;;;;;;;;2.00;2.00;;;;;;;;5095141;27;45396;-71
2022/07/13 07:29:15;;;;;;;;;2.00;2.00;;;;;;;;5093402;27;45673;-70
2022/07/13 07:31:40;;;;;;;;;2.67;2.67;;;;;;;;5092202;27;45583;-70
2022/07/13 07:34:06;;;;;;;;;3.00;3.00;;;;;;;;5092032;27;45511;-70
2022/07/13 07:36:31;;;;;;;;;2.67;2.00;;;;;;;;5092835;27;45456;-70
2022/07/13 07:38:56;;;;;;;;;2.33;2.33;;;;;;;;5095816;27;45409;-70
2022/07/13 07:41:22;;;;;;;;;2.00;1.00;;;;;;;;5095105;27;45522;-71
2022/07/13 07:43:48;;;;;;;;;0.67;0.67;;;;;;;;5092283;27;45490;-70
2022/07/13 07:46:13;;;;;;;;;2.67;2.67;;;;;;;;5092282;27;46769;-71
2022/07/13 07:48:38;;;;;;;;;1.33;1.33;;;;;;;;5092107;27;45420;-70
2022/07/13 07:51:04;;;;;;;;;2.33;2.00;;;;;;;;5094410;27;45449;-70
2022/07/13 07:53:29;;;;;;;;;2.33;2.33;;;;;;;;5094046;27;45506;-70
2022/07/13 07:55:54;;;;;;;;;2.00;2.00;;;;;;;;5091742;27;46258;-70
2022/07/13 07:58:19;;;;;;;;;2.00;2.00;;;;;;;;5091896;27;45237;-70
2022/07/13 08:00:45;;;;;;;;;2.33;2.33;;;;;;;;5092234;27;48928;-70
2022/07/13 08:03:10;;;;;;;;;1.67;1.67;;;;;;;;5094375;27;45774;-71
2022/07/13 08:05:35;;;;;;;;;1.33;1.33;;;;;;;;5093593;27;45331;-70
2022/07/13 08:08:01;;;;;;;;;3.67;2.33;;;;;;;;5091505;27;45298;-70
2022/07/13 08:10:26;;;;;;;;;3.00;3.00;;;;;;;;5092492;27;45354;-70
2022/07/13 08:12:53;;;;;;;;;2.67;2.67;;;;;;;;5092117;27;45894;-70
2022/07/13 08:15:18;;;;;;;;;2.00;2.00;;;;;;;;5094027;27;46351;-70
2022/07/13 08:17:43;;;;;;;;;3.00;2.00;;;;;;;;5093721;27;45359;-70
2022/07/13 08:20:09;;;;;;;;;1.33;1.33;;;;;;;;5090599;27;45347;-70
2022/07/13 08:22:34;;;;;;;;;2.00;2.00;;;;;;;;5091513;27;45540;-70
2022/07/13 08:24:59;;;;;;;;;2.00;2.00;;;;;;;;5091762;27;46361;-70
2022/07/13 08:27:26;;;;;;;;;3.00;3.00;;;;;;;;5093221;27;45345;-70
2022/07/13 08:29:51;;;;;;;;;4.00;3.00;;;;;;;;5095756;27;45356;-70
2022/07/13 08:32:16;;;;;;;;;2.00;2.00;;;;;;;;5091576;27;45320;-70
2022/07/13 08:40:10;;;;;;;;;4.00;3.00;;;;;;;;5091574;27;45421;-70
2022/07/13 08:42:38;;;;;;;;;3.00;3.00;;;;;;;;5091398;27;45346;-70
2022/07/13 08:45:04;;;;;;;;;4.33;2.00;;;;;;;;5095124;27;45487;-70
2022/07/13 08:47:29;;;;;;;;;3.33;2.33;;;;;;;;5093271;27;45480;-70
2022/07/13 08:49:57;;;;;;;;;2.33;2.33;;;;;;;;5091303;27;45910;-71
2022/07/13 08:52:23;;;;;;;;;2.00;2.00;;;;;;;;5091283;27;45448;-67
2022/07/13 08:54:48;;;;;;;;;2.33;2.33;;;;;;;;5091063;27;45406;-71
2022/07/13 08:57:17;;;;;;;;;3.00;3.00;;;;;;;;5093402;27;45703;-72
2022/07/13 08:59:42;;;;;;;;;3.00;3.00;;;;;;;;5093070;27;45575;-72
2022/07/13 09:02:08;;;;;;;;;2.67;2.67;;;;;;;;5091183;27;45499;-72
2022/07/13 09:04:34;;;;;;;;;3.33;2.00;;;;;;;;5091104;27;47273;-72
2022/07/13 09:06:59;;;;;;;;;3.33;2.00;;;;;;;;5090706;27;45567;-71
2022/07/13 09:09:35;;;;;;;;;4.00;3.00;;;;;;;;5092542;27;45450;-71
2022/07/13 09:12:11;;;;;;;;;2.67;2.67;;;;;;;;5090627;27;45346;-71
2022/07/13 09:14:37;;;;;;;;;3.00;3.00;;;;;;;;5093711;27;45436;-71
2022/07/13 09:17:02;;;;;;;;;4.00;3.33;;;;;;;;5090852;27;45449;-71
2022/07/13 09:19:33;;;;;;;;;3.00;3.00;;;;;;;;5091095;27;45368;-71
2022/07/13 09:22:07;;;;;;;;;3.00;3.00;;;;;;;;5090540;27;45483;-72
2022/07/13 09:24:45;;;;;;;;;2.33;2.33;;;;;;;;5085825;27;45549;-71
2022/07/13 09:27:11;;;;;;;;;3.67;2.33;;;;;;;;5090301;27;45371;-72
2022/07/13 09:29:36;;;;;;;;;4.00;3.00;;;;;;;;5094467;27;45393;-72
2022/07/13 09:32:04;;;;;;;;;4.00;2.33;;;;;;;;5093426;27;45385;-71
2022/07/13 09:34:50;;;;;;;;;3.00;3.00;;;;;;;;5094195;27;46605;-72
2022/07/13 09:37:17;;;;;;;;;4.33;2.33;;;;;;;;5094103;27;45499;-72
2022/07/13 09:39:55;;;;;;;;;2.67;2.67;;;;;;;;5094305;27;45675;-72
2022/07/13 09:42:27;;;;;;;;;2.33;1.67;;;;;;;;5096159;27;45550;-72
2022/07/13 09:47:47;;;;;;;;;4.00;4.00;;;;;;;;5097866;27;45391;-72
2022/07/13 09:50:13;;;;;;;;;3.00;2.33;;;;;;;;5093513;27;45505;-72
2022/07/13 09:52:38;;;;;;;;;3.00;3.00;;;;;;;;5094347;27;45475;-72
2022/07/13 09:55:06;;;;;;;;;5.00;2.33;;;;;;;;5093895;27;45431;-72
2022/07/13 09:57:33;;;;;;;;;2.67;2.67;;;;;;;;5102331;27;45461;-71
2022/07/13 09:59:59;;;;;;;;;2.67;2.67;;;;;;;;5097438;27;45417;-71
2022/07/13 10:02:24;;;;;;;;;3.00;3.00;;;;;;;;5096593;27;45694;-71
2022/07/13 10:04:51;;;;;;;;;5.00;3.00;;;;;;;;5098861;27;45553;-71
2022/07/13 10:07:16;;;;;;;;;3.00;3.00;;;;;;;;5093949;27;45349;-71
2022/07/13 10:09:42;;;;;;;;;3.00;3.00;;;;;;;;5093915;27;45331;-72
2022/07/13 10:12:08;;;;;;;;;3.00;3.00;;;;;;;;5097021;27;45801;-71
2022/07/13 10:14:33;;;;;;;;;3.00;2.67;;;;;;;;5094634;27;45769;-71
2022/07/13 10:17:06;;;;;;;;;2.00;2.00;;;;;;;;5095031;27;45520;-71
2022/07/13 10:19:32;;;;;;;;;4.00;4.00;;;;;;;;5093555;27;45409;-72
2022/07/13 10:21:57;;;;;;;;;5.00;3.00;;;;;;;;5093346;27;45398;-71
2022/07/13 10:24:23;;;;;;;;;4.00;3.67;;;;;;;;5094916;27;46428;-72
2022/07/13 10:26:48;;;;;;;;;4.00;4.00;;;;;;;;5095709;27;45456;-71
2022/07/13 10:29:15;;;;;;;;;3.00;3.00;;;;;;;;5095451;27;45285;-71
2022/07/13 10:31:40;;;;;;;;;5.00;5.00;;;;;;;;5093443;27;45489;-72
2022/07/13 10:34:07;;;;;;;;;3.00;3.00;;;;;;;;5095011;27;46105;-72
2022/07/13 10:36:48;;;;;;;;;3.00;3.00;;;;;;;;5088064;27;45605;-71
2022/07/13 10:39:13;;;;;;;;;5.00;3.67;;;;;;;;5092936;27;45319;-71
2022/07/13 10:41:57;;;;;;;;;4.00;4.00;;;;;;;;5094336;27;45551;-71
2022/07/13 10:44:38;;;;;;;;;2.67;2.67;;;;;;;;5092662;27;45553;-71
2022/07/13 10:47:04;;;;;;;;;4.33;3.67;;;;;;;;5093087;27;45470;-71
2022/07/13 10:49:30;;;;;;;;;5.00;4.00;;;;;;;;5092852;27;45402;-70
2022/07/13 10:51:57;;;;;;;;;3.67;3.00;;;;;;;;5092868;27;45452;-70
2022/07/13 10:54:22;;;;;;;;;4.33;4.00;;;;;;;;5095329;27;45523;-70
2022/07/13 10:57:07;;;;;;;;;3.00;3.00;;;;;;;;5096200;27;45302;-70
2022/07/13 10:59:58;;;;;;;;;6.00;4.00;;;;;;;;5093599;27;45433;-71
2022/07/13 11:02:44;;;;;;;;;4.67;4.00;;;;;;;;5049358;28;45540;-70
2022/07/13 11:05:09;;;;;;;;;3.00;3.00;;;;;;;;5049566;28;47304;-70
2022/07/13 11:07:38;;;;;;;;;3.00;3.00;;;;;;;;5050049;28;45533;-70
2022/07/13 11:10:22;;;;;;;;;3.33;2.67;;;;;;;;5049844;28;45524;-70
2022/07/13 11:13:09;;;;;;;;;3.00;3.00;;;;;;;;5050086;28;45427;-70
2022/07/13 11:16:00;;;;;;;;;2.67;2.67;;;;;;;;5044549;28;45635;-70
2022/07/13 11:18:27;;;;;;;;;3.67;3.67;;;;;;;;5047185;28;45570;-70
2022/07/13 11:21:02;;;;;;;;;4.33;2.67;;;;;;;;5052170;28;45539;-70
2022/07/13 11:26:34;;;;;;;;;2.33;2.33;;;;;;;;5049250;28;45812;-70
2022/07/13 11:29:17;;;;;;;;;3.67;3.67;;;;;;;;5051454;28;45345;-70
2022/07/13 11:31:43;;;;;;;;;3.00;3.00;;;;;;;;5042529;28;45592;-70
2022/07/13 11:34:08;;;;;;;;;2.33;2.33;;;;;;;;5049740;28;45435;-69
2022/07/13 11:36:33;;;;;;;;;4.00;3.33;;;;;;;;5049475;28;46407;-69
2022/07/13 11:38:59;;;;;;;;;2.33;2.33;;;;;;;;5070347;27;45512;-69
2022/07/13 11:41:24;;;;;;;;;3.00;3.00;;;;;;;;5092315;27;45377;-69
2022/07/13 11:43:51;;;;;;;;;3.33;3.00;;;;;;;;5092466;27;45377;-69
2022/07/13 11:46:26;;;;;;;;;2.67;2.67;;;;;;;;5091666;27;45512;-69
2022/07/13 11:49:04;;;;;;;;;1.67;1.67;;;;;;;;5092459;27;45418;-69
2022/07/13 11:51:30;;;;;;;;;5.33;3.67;;;;;;;;5093286;27;45480;-70
2022/07/13 11:53:56;;;;;;;;;3.00;3.00;;;;;;;;5093408;27;45624;-70
2022/07/13 11:56:22;;;;;;;;;2.33;2.33;;;;;;;;5091958;27;45403;-69
2022/07/13 11:58:48;;;;;;;;;3.33;3.33;;;;;;;;5092201;27;45405;-70
2022/07/13 12:01:15;;;;;;;;;2.67;2.67;;;;;;;;5092133;27;45409;-70
2022/07/13 12:03:41;;;;;;;;;2.00;2.00;;;;;;;;5092413;27;45499;-70
2022/07/13 12:06:09;;;;;;;;;3.67;3.67;;;;;;;;5095073;27;46178;-69
2022/07/13 12:08:36;;;;;;;;;4.00;4.00;;;;;;;;5092724;27;45369;-70
2022/07/13 12:11:02;;;;;;;;;3.33;3.00;;;;;;;;5091972;27;45681;-70
2022/07/13 12:13:29;;;;;;;;;3.67;3.67;;;;;;;;5092122;27;45640;-70
2022/07/13 12:15:55;;;;;;;;;3.67;3.33;;;;;;;;5091153;27;46679;-70
2022/07/13 12:18:20;;;;;;;;;2.00;2.00;;;;;;;;5094257;27;45593;-69
2022/07/13 12:20:45;;;;;;;;;4.67;3.67;;;;;;;;5093436;27;45389;-70
2022/07/13 12:23:10;;;;;;;;;5.33;5.00;;;;;;;;5091864;27;45431;-70
2022/07/13 12:25:37;;;;;;;;;2.33;2.33;;;;;;;;5091253;27;46881;-70
2022/07/13 12:28:03;;;;;;;;;4.00;4.00;;;;;;;;5094153;27;45504;-70
2022/07/13 12:30:31;;;;;;;;;4.33;3.00;;;;;;;;5101179;27;45368;-69
2022/07/13 12:32:59;;;;;;;;;4.33;4.33;;;;;;;;5094988;27;46328;-70
2022/07/13 12:35:29;;;;;;;;;3.00;3.00;;;;;;;;5091150;27;45539;-70
2022/07/13 12:37:55;;;;;;;;;2.33;2.33;;;;;;;;5091520;27;45449;-69
2022/07/13 12:40:39;;;;;;;;;4.00;3.00;;;;;;;;5099472;27;45369;-70
2022/07/13 12:43:05;;;;;;;;;4.33;4.33;;;;;;;;5091776;27;45522;-70
2022/07/13 12:45:30;;;;;;;;;3.33;3.33;;;;;;;;5091972;27;46288;-70
2022/07/13 12:47:56;;;;;;;;;3.00;3.00;;;;;;;;5094975;27;45341;-70
2022/07/13 12:50:28;;;;;;;;;3.00;2.67;;;;;;;;5092287;27;45668;-70
2022/07/13 12:52:58;;;;;;;;;3.00;3.00;;;;;;;;5091790;27;45440;-70
2022/07/13 12:55:23;;;;;;;;;3.67;3.67;;;;;;;;5091020;27;47070;-70
2022/07/13 12:57:49;;;;;;;;;5.00;5.00;;;;;;;;5090762;27;45441;-69
2022/07/13 13:00:16;;;;;;;;;3.33;3.33;;;;;;;;5093811;27;48489;-69
2022/07/13 13:02:41;;;;;;;;;4.00;3.33;;;;;;;;5092672;27;45613;-70
2022/07/13 13:05:08;;;;;;;;;3.33;3.33;;;;;;;;5090801;27;46201;-70
2022/07/13 13:07:35;;;;;;;;;4.33;3.33;;;;;;;;5094988;27;45416;-70
2022/07/13 13:10:00;;;;;;;;;5.67;4.00;;;;;;;;5096308;27;45487;-70
2022/07/13 13:12:26;;;;;;;;;3.00;3.00;;;;;;;;5095864;27;45357;-70
2022/07/13 13:14:51;;;;;;;;;2.67;2.67;;;;;;;;5096994;27;45374;-70
2022/07/13 13:17:16;;;;;;;;;4.67;4.67;;;;;;;;5094648;27;45523;-70
2022/07/13 13:19:42;;;;;;;;;2.33;2.33;;;;;;;;5095005;27;46078;-69
2022/07/13 13:22:07;;;;;;;;;3.00;3.00;;;;;;;;5094677;27;47186;-69
2022/07/13 13:24:32;;;;;;;;;1.67;1.67;;;;;;;;5095092;27;45609;-70
2022/07/13 13:26:57;;;;;;;;;2.33;1.67;;;;;;;;5097432;27;45366;-70
2022/07/13 13:32:06;;;;;;;;;2.67;2.67;;;;;;;;5097877;27;45589;-70
2022/07/13 13:34:32;;;;;;;;;3.00;3.00;;;;;;;;5094187;27;47027;-70
2022/07/13 13:36:57;;;;;;;;;3.33;3.33;;;;;;;;5094443;27;45607;-70
2022/07/13 13:39:23;;;;;;;;;6.33;4.67;;;;;;;;5096482;27;45401;-69
2022/07/13 13:41:48;;;;;;;;;3.00;3.00;;;;;;;;5096158;27;45763;-70
2022/07/13 13:44:14;;;;;;;;;3.33;3.33;;;;;;;;5097041;27;46298;-70
2022/07/13 13:46:39;;;;;;;;;3.33;3.33;;;;;;;;5101438;27;45607;-69
2022/07/13 13:49:05;;;;;;;;;3.33;3.33;;;;;;;;5094394;27;45386;-70
2022/07/13 13:51:31;;;;;;;;;2.33;2.33;;;;;;;;5094906;27;45415;-70
2022/07/13 13:53:56;;;;;;;;;2.67;2.67;;;;;;;;5097015;27;45466;-70
2022/07/13 13:56:21;;;;;;;;;3.33;3.33;;;;;;;;5093828;27;45606;-70
2022/07/13 13:58:46;;;;;;;;;3.00;3.00;;;;;;;;5094326;27;45316;-70
2022/07/13 14:01:12;;;;;;;;;3.00;3.00;;;;;;;;5093641;27;45373;-70
2022/07/13 14:03:38;;;;;;;;;2.33;2.33;;;;;;;;5094051;27;45489;-70
2022/07/13 14:06:04;;;;;;;;;3.67;3.67;;;;;;;;5097551;27;45424;-70
2022/07/13 14:08:29;;;;;;;;;2.33;2.33;;;;;;;;5093827;27;45331;-70
2022/07/13 14:10:55;;;;;;;;;3.00;3.00;;;;;;;;5093593;27;45293;-70
2022/07/13 14:13:20;;;;;;;;;4.00;4.00;;;;;;;;5093982;27;45473;-69
2022/07/13 14:15:45;;;;;;;;;3.00;3.00;;;;;;;;5095434;27;45745;-70
2022/07/13 14:18:11;;;;;;;;;1.33;1.33;;;;;;;;5097052;27;45299;-70
2022/07/13 14:20:36;;;;;;;;;5.00;3.00;;;;;;;;5094426;27;45453;-70
2022/07/13 14:23:01;;;;;;;;;3.00;3.00;;;;;;;;5093577;27;45608;-69
2022/07/13 14:25:26;;;;;;;;;4.33;3.33;;;;;;;;5093278;27;45442;-69
2022/07/13 14:27:52;;;;;;;;;3.00;3.00;;;;;;;;5095146;27;45456;-70
2022/07/13 14:30:17;;;;;;;;;3.33;3.33;;;;;;;;5104788;27;45520;-70
2022/07/13 14:32:42;;;;;;;;;3.00;3.00;;;;;;;;5094860;27;45504;-70
2022/07/13 14:35:08;;;;;;;;;5.67;4.33;;;;;;;;5094700;27;45487;-70
2022/07/13 14:37:34;;;;;;;;;5.00;3.33;;;;;;;;5093945;27;45141;-70
2022/07/13 14:39:59;;;;;;;;;3.00;3.00;;;;;;;;5093003;27;45487;-70
2022/07/13 14:42:25;;;;;;;;;3.00;3.00;;;;;;;;5095009;27;46280;-70
2022/07/13 14:44:50;;;;;;;;;3.00;3.00;;;;;;;;5095548;27;45433;-70
2022/07/13 14:47:15;;;;;;;;;2.33;2.33;;;;;;;;5098356;27;45466;-70
2022/07/13 14:49:41;;;;;;;;;3.33;3.33;;;;;;;;5093525;27;45472;-70
2022/07/13 14:52:06;;;;;;;;;2.67;2.67;;;;;;;;5093028;27;46512;-70